createdAt,value
2022-08-20T00:00:48.803Z,99729.19
2022-08-20T00:03:23.586Z,99720.66
2022-08-20T00:05:57.722Z,99706.00
2022-08-20T00:08:26.116Z,99697.66
2022-08-20T00:10:55.537Z,99704.72
2022-08-20T00:13:27.226Z,99723.97
2022-08-20T00:15:54.392Z,99734.19
2022-08-20T00:18:22.289Z,99752.62
2022-08-20T00:20:51.683Z,99761.03
2022-08-20T00:23:19.683Z,99764.00
2022-08-20T00:25:47.321Z,99768.66
2022-08-20T00:28:14.666Z,99777.59
2022-08-20T00:30:43.400Z,99767.56
2022-08-20T00:33:13.817Z,99766.53
2022-08-20T00:35:44.277Z,99763.25
2022-08-20T00:38:11.193Z,99781.72
2022-08-20T00:40:45.590Z,99797.84
2022-08-20T00:43:35.818Z,99792.47
2022-08-20T00:46:16.587Z,99795.59
2022-08-20T00:48:46.315Z,99802.25
2022-08-20T00:51:41.661Z,99809.28
2022-08-20T00:54:08.314Z,99813.47
2022-08-20T00:56:35.825Z,99833.03
2022-08-20T00:59:04.566Z,99839.13
2022-08-20T01:01:34.643Z,99841.09
2022-08-20T01:04:21.353Z,99830.53
2022-08-20T01:06:48.709Z,99827.41
2022-08-20T01:09:15.769Z,99824.50
2022-08-20T01:11:42.693Z,99837.84
2022-08-20T01:14:30.658Z,99834.37
2022-08-20T01:17:02.403Z,99839.22
2022-08-20T01:19:35.322Z,99841.28
2022-08-20T01:22:23.879Z,99839.84
2022-08-20T01:24:55.152Z,99836.47
2022-08-20T01:27:22.880Z,99845.62
2022-08-20T01:29:52.242Z,99865.66
2022-08-20T01:32:19.120Z,99851.91
2022-08-20T01:34:46.073Z,99848.81
2022-08-20T01:37:12.801Z,99835.59
2022-08-20T01:39:39.566Z,99818.44
2022-08-20T01:42:07.831Z,99817.06
2022-08-20T01:44:37.712Z,99815.84
2022-08-20T01:47:17.673Z,99823.56
2022-08-20T01:49:51.538Z,99838.28
2022-08-20T01:52:29.724Z,99849.28
2022-08-20T01:54:57.134Z,99846.47
2022-08-20T01:57:26.886Z,99843.28
2022-08-20T01:59:54.574Z,99827.63
2022-08-20T02:02:22.268Z,99816.34
2022-08-20T02:04:49.096Z,99830.22
2022-08-20T02:07:19.690Z,99830.94
2022-08-20T02:09:47.618Z,99829.56
2022-08-20T02:12:17.651Z,99819.81
2022-08-20T02:14:48.469Z,99830.47
2022-08-20T02:17:15.641Z,99834.56
2022-08-20T02:19:47.542Z,99836.69
2022-08-20T02:22:23.673Z,99849.97
2022-08-20T02:24:51.524Z,99849.16
2022-08-20T02:27:19.122Z,99851.78
2022-08-20T02:29:46.919Z,99857.91
2022-08-20T02:32:32.803Z,99859.41
2022-08-20T02:35:03.431Z,99859.41
2022-08-20T02:37:31.225Z,99877.75
2022-08-20T02:39:58.109Z,99868.94
2022-08-20T02:42:25.269Z,99858.56
2022-08-20T02:44:54.215Z,99841.78
2022-08-20T02:47:20.908Z,99817.81
2022-08-20T02:49:47.624Z,99789.44
2022-08-20T02:52:14.355Z,99742.56
2022-08-20T02:54:41.387Z,99682.97
2022-08-20T02:57:13.707Z,99646.66
2022-08-20T02:59:40.636Z,99640.66
2022-08-20T03:02:07.378Z,99619.87
2022-08-20T03:04:34.136Z,99616.25
2022-08-20T03:07:01.032Z,99592.72
2022-08-20T03:09:27.936Z,99587.53
2022-08-20T03:11:54.731Z,99594.41
2022-08-20T03:14:21.476Z,99655.75
2022-08-20T03:16:48.256Z,99731.03
2022-08-20T03:19:15.032Z,99754.41
2022-08-20T03:21:42.107Z,99768.47
2022-08-20T03:24:09.327Z,99777.91
2022-08-20T03:26:37.531Z,99788.78
2022-08-20T03:29:04.687Z,99784.81
2022-08-20T03:31:31.528Z,99781.91
2022-08-20T03:33:58.338Z,99785.69
2022-08-20T03:36:28.245Z,99772.59
2022-08-20T03:39:01.454Z,99779.91
2022-08-20T03:41:29.247Z,99775.66
2022-08-20T03:43:56.700Z,99776.22
2022-08-20T03:46:24.137Z,99775.72
2022-08-20T03:49:00.388Z,99773.31
2022-08-20T03:51:29.394Z,99771.56
2022-08-20T03:53:56.233Z,99772.75
2022-08-20T03:56:23.145Z,99784.75
2022-08-20T03:58:49.906Z,99781.38
2022-08-20T04:01:45.526Z,99794.28
2022-08-20T04:04:03.905Z,99811.34
2022-08-20T04:06:30.691Z,99814.53
2022-08-20T04:08:58.560Z,99824.34
2022-08-20T04:11:25.413Z,99825.91
2022-08-20T04:13:52.641Z,99845.09
2022-08-20T04:16:19.542Z,99851.88
2022-08-20T04:19:01.372Z,99849.72
2022-08-20T04:21:32.663Z,99855.19
2022-08-20T04:24:01.293Z,99857.16
2022-08-20T04:26:28.258Z,99845.72
2022-08-20T04:28:55.834Z,99851.06
2022-08-20T04:31:32.790Z,99847.38
2022-08-20T04:34:04.083Z,99842.47
2022-08-20T04:36:31.104Z,99832.38
2022-08-20T04:38:57.972Z,99812.16
2022-08-20T04:41:24.931Z,99816.13
2022-08-20T04:43:54.425Z,99816.47
2022-08-20T04:46:24.048Z,99826.53
2022-08-20T04:48:50.916Z,99834.84
2022-08-20T04:51:18.877Z,99817.97
2022-08-20T04:53:51.970Z,99806.88
2022-08-20T04:56:24.092Z,99805.72
2022-08-20T04:58:53.443Z,99791.34
2022-08-20T05:01:20.617Z,99775.19
2022-08-20T05:03:48.059Z,99776.53
2022-08-20T05:06:16.428Z,99800.31
2022-08-20T05:08:44.050Z,99830.31
2022-08-20T05:11:32.782Z,99865.25
2022-08-20T05:13:58.388Z,99904.59
2022-08-20T05:16:25.249Z,99926.16
2022-08-20T05:18:52.890Z,99934.84
2022-08-20T05:21:21.136Z,99951.00
2022-08-20T05:23:49.554Z,99960.31
2022-08-20T05:26:16.882Z,99942.69
2022-08-20T05:28:57.737Z,99912.78
2022-08-20T05:31:32.317Z,99917.69
2022-08-20T05:34:12.235Z,99936.41
2022-08-20T05:36:50.746Z,99945.91
2022-08-20T05:39:22.441Z,99944.19
2022-08-20T05:41:51.416Z,99949.13
2022-08-20T05:44:19.173Z,99949.00
2022-08-20T05:46:47.276Z,99947.06
2022-08-20T05:49:19.123Z,99945.53
2022-08-20T05:51:46.289Z,99964.16
2022-08-20T05:54:14.211Z,99970.81
2022-08-20T05:56:41.158Z,99983.94
2022-08-20T05:59:09.975Z,99983.72
2022-08-20T06:01:39.029Z,99988.94
2022-08-20T06:04:28.083Z,99994.13
2022-08-20T06:07:01.844Z,99991.41
2022-08-20T06:09:32.198Z,99985.91
2022-08-20T06:12:01.556Z,99997.25
2022-08-20T06:14:28.641Z,100011.13
2022-08-20T06:16:58.038Z,100026.44
2022-08-20T06:19:27.214Z,100027.41
2022-08-20T06:21:59.810Z,100037.13
2022-08-20T06:24:27.172Z,100041.38
2022-08-20T06:27:02.389Z,100043.78
2022-08-20T06:29:30.218Z,100046.56
2022-08-20T06:31:57.517Z,100040.94
2022-08-20T06:34:28.378Z,100024.47
2022-08-20T06:36:59.263Z,100026.63
2022-08-20T06:39:30.258Z,100018.44
2022-08-20T06:41:58.852Z,100014.22
2022-08-20T06:44:26.167Z,100005.69
2022-08-20T06:46:53.081Z,100004.81
2022-08-20T06:49:19.906Z,99998.81
2022-08-20T06:51:46.644Z,99997.94
2022-08-20T06:54:18.758Z,99999.28
2022-08-20T06:56:45.473Z,99990.47
2022-08-20T06:59:12.248Z,99985.13
2022-08-20T07:01:39.073Z,99972.50
2022-08-20T07:04:07.679Z,99963.44
2022-08-20T07:06:34.664Z,99952.25
2022-08-20T07:09:01.443Z,99961.47
2022-08-20T07:11:28.920Z,99946.06
2022-08-20T07:13:58.529Z,99947.19
2022-08-20T07:16:26.074Z,99942.22
2022-08-20T07:18:52.906Z,99932.50
2022-08-20T07:21:19.960Z,99934.03
2022-08-20T07:23:49.050Z,99941.75
2022-08-20T07:26:16.383Z,99944.72
2022-08-20T07:28:43.203Z,99947.16
2022-08-20T07:31:28.915Z,99929.66
2022-08-20T07:33:58.512Z,99923.31
2022-08-20T07:36:27.093Z,99933.25
2022-08-20T07:38:54.932Z,99941.97
2022-08-20T07:41:24.359Z,99936.94
2022-08-20T07:43:51.453Z,99921.25
2022-08-20T07:46:21.789Z,99913.75
2022-08-20T07:48:50.663Z,99925.69
2022-08-20T07:51:20.547Z,99927.38
2022-08-20T07:53:48.637Z,99926.59
2022-08-20T07:56:19.435Z,99939.22
2022-08-20T07:58:52.531Z,99936.84
2022-08-20T08:01:21.998Z,99943.50
2022-08-20T08:03:50.006Z,99949.31
2022-08-20T08:06:29.136Z,99956.50
2022-08-20T08:09:01.848Z,99962.87
2022-08-20T08:11:28.798Z,99966.78
2022-08-20T08:13:55.684Z,99958.34
2022-08-20T08:16:22.605Z,99950.19
2022-08-20T08:18:56.699Z,99949.22
2022-08-20T08:21:24.115Z,99943.44
2022-08-20T08:23:51.169Z,99938.81
2022-08-20T08:26:21.922Z,99931.28
2022-08-20T08:28:48.751Z,99924.03
2022-08-20T08:31:16.062Z,99926.13
2022-08-20T08:33:43.142Z,99942.28
2022-08-20T08:36:15.412Z,99950.63
2022-08-20T08:38:45.006Z,99946.22
2022-08-20T08:41:29.703Z,99950.03
2022-08-20T08:44:04.709Z,99931.06
2022-08-20T08:46:35.855Z,99927.25
2022-08-20T08:49:02.960Z,99930.03
2022-08-20T08:51:42.197Z,99931.50
2022-08-20T08:54:16.634Z,99931.25
2022-08-20T08:56:43.668Z,99931.69
2022-08-20T08:59:19.219Z,99936.69
2022-08-20T09:01:55.541Z,99928.53
2022-08-20T09:04:31.747Z,99937.09
2022-08-20T09:07:00.275Z,99923.50
2022-08-20T09:09:32.374Z,99928.72
2022-08-20T09:12:06.426Z,99921.53
2022-08-20T09:14:33.775Z,99918.19
2022-08-20T09:17:00.594Z,99921.66
2022-08-20T09:19:27.629Z,99925.63
2022-08-20T09:21:54.608Z,99923.47
2022-08-20T09:24:21.478Z,99924.66
2022-08-20T09:26:48.283Z,99922.47
2022-08-20T09:29:15.394Z,99915.16
2022-08-20T09:31:42.212Z,99917.28
2022-08-20T09:34:09.626Z,99914.19
2022-08-20T09:36:36.351Z,99905.75
2022-08-20T09:39:03.505Z,99913.47
2022-08-20T09:41:33.596Z,99916.34
2022-08-20T09:44:01.722Z,99911.88
2022-08-20T09:46:28.624Z,99910.50
2022-08-20T09:48:55.662Z,99914.09
2022-08-20T09:51:23.180Z,99924.66
2022-08-20T09:53:50.446Z,99925.87
2022-08-20T09:56:18.340Z,99918.22
2022-08-20T09:58:53.547Z,99930.16
2022-08-20T10:01:22.407Z,99927.63
2022-08-20T10:03:49.738Z,99918.34
2022-08-20T10:06:19.988Z,99917.59
2022-08-20T10:08:48.144Z,99927.88
2022-08-20T10:11:15.126Z,99909.84
2022-08-20T10:13:42.297Z,99919.59
2022-08-20T10:16:09.113Z,99920.25
2022-08-20T10:18:36.628Z,99924.09
2022-08-20T10:21:08.750Z,99923.88
2022-08-20T10:23:35.591Z,99916.94
2022-08-20T10:26:02.377Z,99922.72
2022-08-20T10:28:29.278Z,99919.09
2022-08-20T10:30:56.117Z,99918.56
2022-08-20T10:33:22.869Z,99921.28
2022-08-20T10:35:50.899Z,99907.94
2022-08-20T10:38:21.622Z,99912.13
2022-08-20T10:40:52.415Z,99910.47
2022-08-20T10:43:19.590Z,99911.22
2022-08-20T10:45:46.573Z,99906.50
2022-08-20T10:48:14.491Z,99900.84
2022-08-20T10:50:43.897Z,99911.69
2022-08-20T10:53:10.970Z,99908.09
2022-08-20T10:55:37.711Z,99903.63
2022-08-20T10:58:08.249Z,99905.09
2022-08-20T11:00:38.460Z,99910.22
2022-08-20T11:03:05.629Z,99911.53
2022-08-20T11:05:32.699Z,99913.81
2022-08-20T11:08:02.826Z,99915.31
2022-08-20T11:10:33.446Z,99924.91
2022-08-20T11:13:01.967Z,99932.44
2022-08-20T11:15:29.044Z,99932.94
2022-08-20T11:17:56.765Z,99919.31
2022-08-20T11:20:26.441Z,99916.31
2022-08-20T11:22:56.506Z,99921.50
2022-08-20T11:25:23.901Z,99911.06
2022-08-20T11:27:51.906Z,99914.75
2022-08-20T11:30:25.390Z,99913.16
2022-08-20T11:32:52.681Z,99905.69
2022-08-20T11:38:08.683Z,99907.50
2022-08-20T11:40:36.143Z,99896.63
2022-08-20T11:43:18.609Z,99902.06
2022-08-20T11:45:48.766Z,99908.91
2022-08-20T11:48:15.527Z,99902.53
2022-08-20T11:50:42.389Z,99907.50
2022-08-20T11:53:09.259Z,99906.72
2022-08-20T11:55:37.359Z,99905.84
2022-08-20T11:58:05.529Z,99899.63
2022-08-20T12:00:34.234Z,99902.03
2022-08-20T12:03:08.949Z,99905.84
2022-08-20T12:05:41.075Z,99905.94
2022-08-20T12:08:09.280Z,99901.66
2022-08-20T12:10:38.110Z,99902.56
2022-08-20T12:13:06.393Z,99884.28
2022-08-20T12:15:35.073Z,99886.41
2022-08-20T12:18:05.724Z,99891.38
2022-08-20T12:20:32.670Z,99887.75
2022-08-20T12:22:59.507Z,99875.03
2022-08-20T12:25:26.928Z,99879.81
2022-08-20T12:27:53.941Z,99881.31
2022-08-20T12:30:23.615Z,99875.47
2022-08-20T12:32:50.737Z,99885.34
2022-08-20T12:35:19.285Z,99875.69
2022-08-20T12:37:47.341Z,99881.88
2022-08-20T12:40:24.524Z,99878.44
2022-08-20T12:42:59.125Z,99878.41
2022-08-20T12:45:25.982Z,99864.37
2022-08-20T12:47:52.949Z,99865.81
2022-08-20T12:50:23.614Z,99862.78
2022-08-20T12:52:51.239Z,99867.06
2022-08-20T12:55:19.866Z,99868.16
2022-08-20T12:57:50.118Z,99869.47
2022-08-20T13:00:39.466Z,99871.78
2022-08-20T13:03:11.729Z,99861.22
2022-08-20T13:05:39.463Z,99860.75
2022-08-20T13:08:11.239Z,99859.03
2022-08-20T13:10:47.334Z,99854.88
2022-08-20T13:13:20.263Z,99858.91
2022-08-20T13:15:49.436Z,99856.13
2022-08-20T13:18:16.309Z,99854.16
2022-08-20T13:20:43.156Z,99843.34
2022-08-20T13:23:09.898Z,99836.69
2022-08-20T13:25:36.790Z,99847.81
2022-08-20T13:28:05.302Z,99861.63
2022-08-20T13:30:34.909Z,99853.09
2022-08-20T13:33:02.294Z,99851.25
2022-08-20T13:35:29.984Z,99838.34
2022-08-20T13:37:57.041Z,99839.44
2022-08-20T13:40:23.943Z,99834.34
2022-08-20T13:42:50.877Z,99823.59
2022-08-20T13:45:18.297Z,99821.91
2022-08-20T13:47:45.458Z,99829.59
2022-08-20T13:50:18.019Z,99824.16
2022-08-20T13:52:45.910Z,99823.91
2022-08-20T13:55:16.213Z,99823.22
2022-08-20T13:57:44.474Z,99826.59
2022-08-20T14:00:15.751Z,99833.09
2022-08-20T14:02:43.378Z,99830.06
2022-08-20T14:05:11.424Z,99834.28
2022-08-20T14:07:40.952Z,99827.78
2022-08-20T14:10:12.925Z,99819.13
2022-08-20T14:12:39.769Z,99820.34
2022-08-20T14:15:09.159Z,99826.03
2022-08-20T14:17:39.808Z,99824.91
2022-08-20T14:20:19.866Z,99823.69
2022-08-20T14:22:46.783Z,99822.78
2022-08-20T14:25:17.900Z,99842.00
2022-08-20T14:27:45.229Z,99836.19
2022-08-20T14:30:15.602Z,99841.13
2022-08-20T14:32:42.414Z,99828.69
2022-08-20T14:35:10.228Z,99831.16
2022-08-20T14:37:46.507Z,99835.28
2022-08-20T14:40:17.100Z,99828.78
2022-08-20T14:42:47.675Z,99825.22
2022-08-20T14:45:18.519Z,99828.16
2022-08-20T14:47:53.414Z,99815.88
2022-08-20T14:50:33.758Z,99819.63
2022-08-20T14:53:01.548Z,99814.66
2022-08-20T14:55:31.722Z,99812.84
2022-08-20T14:57:58.656Z,99816.94
2022-08-20T15:00:30.366Z,99815.12
2022-08-20T15:02:57.376Z,99821.25
2022-08-20T15:05:25.051Z,99827.00
2022-08-20T15:07:53.823Z,99840.28
2022-08-20T15:10:32.785Z,99835.91
2022-08-20T15:13:00.528Z,99839.00
2022-08-20T15:15:28.038Z,99832.09
2022-08-20T15:17:58.102Z,99827.88
2022-08-20T15:20:27.616Z,99830.50
2022-08-20T15:22:55.081Z,99833.75
2022-08-20T15:25:24.857Z,99826.63
2022-08-20T15:28:01.591Z,99839.50
2022-08-20T15:30:30.558Z,99839.94
2022-08-20T15:32:57.645Z,99838.69
2022-08-20T15:35:27.161Z,99832.00
2022-08-20T15:37:57.918Z,99832.75
2022-08-20T15:40:28.379Z,99836.84
2022-08-20T15:42:57.194Z,99835.59
2022-08-20T15:45:24.803Z,99850.97
2022-08-20T15:48:08.913Z,99849.22
2022-08-20T15:50:48.063Z,99851.44
2022-08-20T15:53:28.977Z,99860.50
2022-08-20T15:56:08.304Z,99862.84
2022-08-20T15:59:20.329Z,99863.78
2022-08-20T16:01:49.828Z,99867.12
2022-08-20T16:04:34.513Z,99873.47
2022-08-20T16:07:18.199Z,99878.03
2022-08-20T16:10:22.854Z,99868.78
2022-08-20T16:12:53.747Z,99871.81
2022-08-20T16:15:34.565Z,99869.34
2022-08-20T16:18:07.360Z,99866.19
2022-08-20T16:20:41.943Z,99870.78
2022-08-20T16:23:10.023Z,99866.50
2022-08-20T16:26:07.582Z,99875.22
2022-08-20T16:28:46.779Z,99877.16
2022-08-20T16:31:19.227Z,99879.00
2022-08-20T16:34:01.705Z,99875.97
2022-08-20T16:36:39.109Z,99888.09
2022-08-20T16:39:11.232Z,99880.34
2022-08-20T16:41:44.128Z,99888.75
2022-08-20T16:44:38.559Z,99888.66
2022-08-20T16:47:29.463Z,99888.69
2022-08-20T16:50:22.806Z,99886.63
2022-08-20T16:52:51.805Z,99892.41
2022-08-20T16:55:21.774Z,99901.69
2022-08-20T16:57:49.700Z,99898.25
2022-08-20T17:00:25.173Z,99890.19
2022-08-20T17:03:00.064Z,99895.00
2022-08-20T17:05:32.056Z,99897.31
2022-08-20T17:08:04.281Z,99904.53
2022-08-20T17:10:52.380Z,99907.97
2022-08-20T17:13:28.031Z,99908.97
2022-08-20T17:16:01.719Z,99910.50
2022-08-20T17:18:36.823Z,99915.78
2022-08-20T17:21:14.097Z,99905.41
2022-08-20T17:23:56.101Z,99902.28
2022-08-20T17:26:29.649Z,99921.72
2022-08-20T17:29:00.040Z,99917.50
2022-08-20T17:31:38.932Z,99925.59
2022-08-20T17:34:13.138Z,99920.31
2022-08-20T17:36:50.094Z,99911.72
2022-08-20T17:39:19.323Z,99917.50
2022-08-20T17:41:52.563Z,99908.63
2022-08-20T17:44:26.106Z,99910.47
2022-08-20T17:46:54.128Z,99904.00
2022-08-20T17:49:35.095Z,99921.22
2022-08-20T17:52:10.137Z,99914.94
2022-08-20T17:54:41.611Z,99920.59
2022-08-20T17:57:14.372Z,99924.25
2022-08-20T18:00:02.383Z,99921.41
2022-08-20T18:02:30.804Z,99930.63
2022-08-20T18:04:57.690Z,99934.94
2022-08-20T18:07:27.473Z,99941.09
2022-08-20T18:10:00.484Z,99946.97
2022-08-20T18:12:41.664Z,99946.94
2022-08-20T18:15:13.735Z,99957.22
2022-08-20T18:17:46.550Z,99952.09
2022-08-20T18:20:37.568Z,99956.13
2022-08-20T18:23:22.624Z,99950.28
2022-08-20T18:25:55.009Z,99943.88
2022-08-20T18:28:41.332Z,99944.59
2022-08-20T18:31:10.511Z,99950.94
2022-08-20T18:33:43.181Z,99955.31
2022-08-20T18:36:24.804Z,99945.97
2022-08-20T18:39:04.178Z,99947.50
2022-08-20T18:41:40.567Z,99945.53
2022-08-20T18:44:10.081Z,99951.66
2022-08-20T18:46:38.285Z,99951.19
2022-08-20T18:49:08.766Z,99950.47
2022-08-20T18:51:40.603Z,99953.59
2022-08-20T18:54:07.944Z,99946.50
2022-08-20T18:56:43.086Z,99948.75
2022-08-20T18:59:15.773Z,99955.53
2022-08-20T19:01:46.561Z,99953.09
2022-08-20T19:04:28.450Z,99954.87
2022-08-20T19:07:16.319Z,99964.16
2022-08-20T19:09:52.368Z,99970.56
2022-08-20T19:12:28.274Z,99983.69
2022-08-20T19:15:17.799Z,99967.66
2022-08-20T19:18:03.143Z,99967.12
2022-08-20T19:20:33.773Z,99968.53
2022-08-20T19:23:07.775Z,99971.81
2022-08-20T19:25:44.819Z,99969.25
2022-08-20T19:28:21.966Z,99973.31
2022-08-20T19:30:48.881Z,99974.88
2022-08-20T19:33:26.704Z,99973.88
2022-08-20T19:36:11.525Z,99969.53
2022-08-20T19:38:50.066Z,99979.41
2022-08-20T19:41:31.423Z,99974.41
2022-08-20T19:44:00.304Z,99975.38
2022-08-20T19:46:40.408Z,99974.38
2022-08-20T19:49:29.344Z,99976.41
2022-08-20T19:52:51.959Z,99971.00
2022-08-20T19:55:24.035Z,99979.69
2022-08-20T19:57:55.902Z,99973.88
2022-08-20T20:00:24.931Z,99972.16
2022-08-20T20:02:51.814Z,99982.62
2022-08-20T20:05:19.097Z,99986.84
2022-08-20T20:07:50.547Z,99987.81
2022-08-20T20:10:31.768Z,99985.00
2022-08-20T20:13:07.661Z,99989.81
2022-08-20T20:15:34.807Z,99992.03
2022-08-20T20:18:01.978Z,99989.00
2022-08-20T20:20:32.476Z,99987.75
2022-08-20T20:23:11.604Z,99984.72
2022-08-20T20:25:43.421Z,99979.81
2022-08-20T20:28:21.097Z,99958.41
2022-08-20T20:30:48.908Z,99968.59
2022-08-20T20:33:22.455Z,99958.81
2022-08-20T20:36:07.493Z,99969.97
2022-08-20T20:38:36.891Z,99964.38
2022-08-20T20:41:06.777Z,99972.47
2022-08-20T20:43:37.754Z,99979.38
2022-08-20T20:46:20.533Z,99982.59
2022-08-20T20:48:49.494Z,99976.56
2022-08-20T20:51:38.652Z,99982.31
2022-08-20T20:54:21.330Z,99982.72
2022-08-20T20:56:58.912Z,99982.03
2022-08-20T20:59:26.072Z,99981.94
2022-08-20T21:01:52.837Z,99980.75
2022-08-20T21:04:21.761Z,99982.31
2022-08-20T21:06:49.406Z,99974.09
2022-08-20T21:09:17.006Z,99967.19
2022-08-20T21:11:43.911Z,99970.47
2022-08-20T21:14:11.174Z,99971.63
2022-08-20T21:16:37.889Z,99966.62
2022-08-20T21:19:06.651Z,99966.91
2022-08-20T21:21:34.067Z,99969.19
2022-08-20T21:24:01.259Z,99963.75
2022-08-20T21:26:28.891Z,99972.75
2022-08-20T21:28:56.046Z,99985.84
2022-08-20T21:31:29.906Z,99985.34
2022-08-20T21:33:57.005Z,99992.19
2022-08-20T21:36:24.028Z,99984.81
2022-08-20T21:38:51.534Z,99986.13
2022-08-20T21:41:18.547Z,99978.66
2022-08-20T21:43:56.701Z,99977.19
2022-08-20T21:46:24.847Z,99985.00
2022-08-20T21:48:52.125Z,99992.38
2022-08-20T21:51:19.496Z,99982.50
2022-08-20T21:53:46.782Z,99984.50
2022-08-20T21:56:13.469Z,99979.53
2022-08-20T21:58:40.660Z,99987.47
2022-08-20T22:01:08.331Z,99987.59
2022-08-20T22:03:38.789Z,99981.81
2022-08-20T22:06:08.649Z,99981.75
2022-08-20T22:08:35.815Z,99978.87
2022-08-20T22:11:03.472Z,99994.94
2022-08-20T22:13:32.910Z,99989.31
2022-08-20T22:16:23.522Z,99979.28
2022-08-20T22:18:51.859Z,99979.28
2022-08-20T22:21:23.408Z,99994.06
2022-08-20T22:23:50.637Z,99996.69
2022-08-20T22:26:19.299Z,99997.41
2022-08-20T22:28:50.908Z,99998.19
2022-08-20T22:31:24.452Z,100002.97
2022-08-20T22:33:51.364Z,100001.31
2022-08-20T22:36:18.636Z,100000.69
2022-08-20T22:38:47.308Z,99999.06
2022-08-20T22:41:22.334Z,100000.28
2022-08-20T22:43:55.867Z,99991.41
2022-08-20T22:46:27.635Z,99983.47
2022-08-20T22:48:55.943Z,99992.16
2022-08-20T22:51:43.375Z,99993.56
2022-08-20T22:54:12.587Z,99998.09
2022-08-20T22:56:40.883Z,99999.25
2022-08-20T22:59:07.953Z,99998.56
2022-08-20T23:01:34.838Z,99994.66
2022-08-20T23:04:12.424Z,99993.75
2022-08-20T23:06:39.306Z,99988.91
2022-08-20T23:09:06.077Z,99984.09
2022-08-20T23:11:32.899Z,99979.16
2022-08-20T23:13:59.911Z,99980.28
2022-08-20T23:16:26.814Z,99973.78
2022-08-20T23:18:53.943Z,99959.56
2022-08-20T23:21:20.841Z,99961.50
2022-08-20T23:23:47.791Z,99959.00
2022-08-20T23:26:20.402Z,99950.94
2022-08-20T23:28:47.633Z,99957.19
2022-08-20T23:31:14.907Z,99949.47
2022-08-20T23:33:44.957Z,99946.59
2022-08-20T23:36:12.817Z,99951.84
2022-08-20T23:38:39.830Z,99943.19
2022-08-20T23:41:06.567Z,99955.13
2022-08-20T23:43:33.440Z,99955.94
2022-08-20T23:46:04.163Z,99949.13
2022-08-20T23:48:31.803Z,99944.50
2022-08-20T23:50:58.623Z,99946.50
2022-08-20T23:53:25.707Z,99949.22
2022-08-20T23:55:52.571Z,99946.84
2022-08-20T23:58:19.551Z,99941.19
